createdAt,value
2019-01-20T17:40:31.448Z,75.83
2019-01-20T17:43:03.016Z,77.14
2019-01-20T17:45:35.737Z,77.14
2019-01-20T17:48:06.454Z,76.38
2019-01-20T17:50:38.923Z,76.14
2019-01-20T17:53:10.732Z,75.98
2019-01-20T17:55:41.407Z,75.90
2019-01-20T17:58:11.881Z,75.94
2019-01-20T18:00:45.599Z,75.92
2019-01-20T18:03:16.661Z,75.91
2019-01-20T18:05:47.086Z,75.82
2019-01-20T18:08:17.518Z,75.71
2019-01-20T18:10:47.853Z,75.68
2019-01-20T18:13:18.505Z,75.72
2019-01-20T18:15:54.438Z,75.64
2019-01-20T18:18:21.328Z,75.65
2019-01-20T18:20:51.845Z,76.04
2019-01-20T18:23:22.523Z,76.18
2019-01-20T18:25:52.858Z,76.14
2019-01-20T18:28:23.495Z,76.05
2019-01-20T18:30:53.909Z,75.86
2019-01-20T18:33:24.510Z,75.89
2019-01-20T18:35:54.876Z,75.86
2019-01-20T18:38:25.475Z,76.26
2019-01-20T18:40:55.855Z,76.26
2019-01-20T18:43:26.589Z,76.44
2019-01-20T18:46:01.621Z,76.33
2019-01-20T18:48:29.438Z,76.24
2019-01-20T18:50:59.827Z,76.24
2019-01-20T18:53:30.787Z,76.62
2019-01-20T18:56:01.575Z,76.92
2019-01-20T18:58:31.854Z,77.15
2019-01-20T19:01:03.155Z,77.26
2019-01-20T19:03:33.470Z,77.26
2019-01-20T19:06:04.057Z,77.22
2019-01-20T19:08:34.599Z,77.21
2019-01-20T19:11:04.901Z,77.21
2019-01-20T19:13:35.427Z,77.15
2019-01-20T19:16:09.017Z,76.91
2019-01-20T19:18:38.372Z,76.82
2019-01-20T19:21:09.843Z,76.70
2019-01-20T19:23:40.457Z,77.00
2019-01-20T19:26:10.835Z,77.75
2019-01-20T19:28:41.443Z,78.19
2019-01-20T19:31:11.799Z,78.00
2019-01-20T19:33:42.403Z,78.24
2019-01-20T19:36:12.928Z,78.24
2019-01-20T19:38:43.602Z,78.10
2019-01-20T19:41:15.055Z,77.93
2019-01-20T19:43:46.524Z,77.62
2019-01-20T19:46:16.851Z,77.42
2019-01-20T19:48:47.786Z,77.42
2019-01-20T19:51:18.407Z,77.60
2019-01-20T19:53:48.732Z,77.71
2019-01-20T19:56:19.350Z,77.54
2019-01-20T19:58:49.677Z,77.51
2019-01-20T20:01:20.478Z,77.56
2019-01-20T20:03:50.800Z,77.53
2019-01-20T20:06:21.449Z,77.81
2019-01-20T20:08:51.845Z,77.91
2019-01-20T20:11:22.375Z,78.14
2019-01-20T20:13:52.872Z,77.99
2019-01-20T20:16:24.850Z,78.26
2019-01-20T20:18:55.506Z,78.26
2019-01-20T20:21:25.942Z,78.38
2019-01-20T20:23:56.461Z,78.47
2019-01-20T20:26:26.905Z,78.29
2019-01-20T20:28:57.671Z,78.04
2019-01-20T20:31:28.400Z,77.93
2019-01-20T20:33:59.157Z,77.89
2019-01-20T20:36:29.737Z,77.70
2019-01-20T20:39:00.378Z,77.74
2019-01-20T20:41:30.826Z,77.74
2019-01-20T20:44:01.549Z,77.58
2019-01-20T20:46:32.079Z,77.44
2019-01-20T20:49:02.747Z,76.87
2019-01-20T20:51:33.478Z,76.87
2019-01-20T20:54:06.393Z,76.67
2019-01-20T20:56:36.738Z,76.59
2019-01-20T20:59:07.515Z,76.43
2019-01-20T21:01:38.362Z,76.47
2019-01-20T21:04:08.961Z,76.89
2019-01-20T21:06:39.627Z,77.15
2019-01-20T21:09:11.634Z,77.17
2019-01-20T21:11:42.039Z,77.22
2019-01-20T21:14:12.678Z,77.12
2019-01-20T21:16:43.572Z,77.03
2019-01-20T21:19:13.924Z,76.77
2019-01-20T21:21:44.536Z,76.37
2019-01-20T21:24:14.916Z,76.31
2019-01-20T21:26:45.774Z,76.23
2019-01-20T21:29:16.603Z,76.21
2019-01-20T21:31:47.018Z,76.19
2019-01-20T21:34:17.322Z,76.09
2019-01-20T21:36:47.762Z,75.81
2019-01-20T21:39:18.290Z,75.74
2019-01-20T21:41:48.853Z,75.69
2019-01-20T21:44:19.457Z,75.66
2019-01-20T21:46:50.015Z,75.61
2019-01-20T21:49:20.665Z,75.65
2019-01-20T21:51:51.305Z,75.85
2019-01-20T21:54:21.686Z,76.03
2019-01-20T21:56:59.666Z,76.38
2019-01-20T21:59:30.048Z,76.92
2019-01-20T22:02:00.449Z,77.20
2019-01-20T22:04:30.823Z,77.36
2019-01-20T22:07:01.535Z,77.32
2019-01-20T22:09:31.830Z,76.89
2019-01-20T22:12:03.010Z,76.49
2019-01-20T22:14:33.464Z,76.76
2019-01-20T22:17:03.774Z,77.03
2019-01-20T22:19:34.459Z,77.32
2019-01-20T22:22:04.853Z,77.61
2019-01-20T22:24:35.589Z,77.61
2019-01-20T22:27:08.061Z,77.84
2019-01-20T22:29:38.573Z,78.00
2019-01-20T22:32:08.909Z,78.14
2019-01-20T22:34:39.481Z,78.16
2019-01-20T22:37:09.886Z,78.12
2019-01-20T22:39:40.518Z,78.05
2019-01-20T22:42:10.825Z,77.88
2019-01-20T22:44:41.399Z,77.76
2019-01-20T22:47:11.819Z,77.54
2019-01-20T22:49:42.506Z,77.39
2019-01-20T22:52:12.867Z,77.34
2019-01-20T22:54:43.361Z,77.32
2019-01-20T22:57:13.788Z,77.35
2019-01-20T22:59:44.393Z,77.66
2019-01-20T23:02:14.857Z,77.66
2019-01-20T23:04:45.403Z,77.93
2019-01-20T23:07:16.168Z,77.44
2019-01-20T23:09:46.600Z,77.44
2019-01-20T23:12:16.828Z,77.52
2019-01-20T23:14:47.559Z,77.59
2019-01-20T23:17:17.893Z,77.84
2019-01-20T23:19:48.397Z,77.90
2019-01-20T23:22:18.866Z,78.00
2019-01-20T23:24:49.400Z,78.23
2019-01-20T23:27:19.730Z,78.29
2019-01-20T23:29:50.402Z,78.46
2019-01-20T23:32:20.776Z,78.86
2019-01-20T23:34:51.483Z,79.07
2019-01-20T23:37:22.110Z,79.13
2019-01-20T23:39:52.613Z,79.08
2019-01-20T23:42:22.896Z,79.11
2019-01-20T23:44:53.359Z,79.06
2019-01-20T23:47:23.694Z,79.25
2019-01-20T23:49:54.225Z,79.63
2019-01-20T23:52:24.783Z,79.78
2019-01-20T23:54:55.427Z,79.78
2019-01-20T23:57:25.777Z,79.84
2019-01-20T23:59:56.469Z,79.80
